Time;durP1;ratioP1;P1;durP2;ratioP2;P2;SDS_P1;SDS_P2;PMS_P1;PMS_P2;Temp;Humidity;BMP_temperature;BMP_pressure;BME280_temperature;BME280_humidity;BME280_pressure;Samples;Min_cycle;Max_cycle;Signal;HPM_P1;HPM_P2
2023/03/24 00:01:05;;;;;;;12.20;6.55;;;11.30;99.90;;;;;;7359853;19;20018;-69
2023/03/24 00:03:32;;;;;;;17.33;6.80;;;11.30;99.90;;;;;;7362245;19;20022;-70
2023/03/24 00:06:03;;;;;;;15.50;7.65;;;11.20;99.90;;;;;;7363035;19;20440;-71
2023/03/24 00:08:46;;;;;;;14.68;6.93;;;11.20;99.90;;;;;;7366795;19;20023;-70
2023/03/24 00:11:13;;;;;;;14.88;6.72;;;11.20;99.90;;;;;;7365316;19;20769;-70
2023/03/24 00:13:42;;;;;;;12.32;7.07;;;11.20;99.90;;;;;;7361922;19;20530;-70
2023/03/24 00:16:15;;;;;;;12.48;6.40;;;11.20;99.90;;;;;;7369076;19;20018;-67
2023/03/24 00:18:43;;;;;;;15.70;7.00;;;11.20;99.90;;;;;;7377888;19;20133;-69
2023/03/24 00:21:10;;;;;;;13.70;6.90;;;11.20;99.90;;;;;;7376071;19;20014;-70
2023/03/24 00:23:37;;;;;;;12.20;6.28;;;11.20;99.90;;;;;;7377439;19;20033;-69
2023/03/24 00:26:11;;;;;;;13.07;6.63;;;11.20;99.90;;;;;;7373930;19;20019;-66
2023/03/24 00:28:37;;;;;;;14.48;6.88;;;11.10;99.90;;;;;;7375734;19;20078;-69
2023/03/24 00:31:07;;;;;;;10.52;6.45;;;11.10;99.90;;;;;;7375786;19;20030;-70
2023/03/24 00:33:35;;;;;;;9.07;6.53;;;11.10;99.90;;;;;;7371994;19;20018;-66
2023/03/24 00:36:06;;;;;;;14.20;7.70;;;11.10;99.90;;;;;;7374918;19;20026;-65
2023/03/24 00:38:33;;;;;;;15.10;6.80;;;11.10;99.90;;;;;;7377179;19;20019;-66
2023/03/24 00:41:00;;;;;;;14.73;7.15;;;11.10;99.90;;;;;;7377940;19;20107;-66
2023/03/24 00:43:28;;;;;;;13.80;7.10;;;11.10;99.90;;;;;;7376386;19;20010;-65
2023/03/24 00:46:00;;;;;;;14.55;7.97;;;11.10;99.90;;;;;;7375078;19;20022;-66
2023/03/24 00:48:28;;;;;;;12.40;7.50;;;11.10;99.90;;;;;;7377760;19;20018;-69
2023/03/24 00:50:57;;;;;;;12.80;7.00;;;11.10;99.90;;;;;;7380054;19;20038;-69
2023/03/24 00:53:27;;;;;;;12.30;6.45;;;11.10;99.90;;;;;;7376210;19;20086;-68
2023/03/24 00:55:56;;;;;;;9.82;6.15;;;11.10;99.90;;;;;;7376330;19;20022;-68
2023/03/24 00:58:23;;;;;;;15.27;7.60;;;11.10;99.90;;;;;;7378519;19;20517;-68
2023/03/24 01:00:54;;;;;;;11.57;6.78;;;11.10;99.90;;;;;;7375859;19;20450;-66
2023/03/24 01:03:25;;;;;;;11.68;7.03;;;11.20;99.90;;;;;;7375112;19;20035;-66
2023/03/24 01:05:56;;;;;;;12.52;7.45;;;11.10;99.90;;;;;;7372305;19;20109;-67
2023/03/24 01:08:24;;;;;;;14.65;7.15;;;11.10;99.90;;;;;;7373874;19;20015;-66
2023/03/24 01:10:54;;;;;;;13.80;7.68;;;11.10;99.90;;;;;;7375970;19;20018;-67
2023/03/24 01:13:24;;;;;;;13.07;6.72;;;11.20;99.90;;;;;;7373333;19;20014;-66
2023/03/24 01:15:51;;;;;;;13.05;6.28;;;11.10;99.90;;;;;;7373044;19;20033;-66
2023/03/24 01:18:18;;;;;;;11.82;6.70;;;11.20;99.90;;;;;;7373705;19;20019;-65
2023/03/24 01:20:47;;;;;;;11.60;6.78;;;11.10;99.90;;;;;;7375514;19;20492;-66
2023/03/24 01:23:20;;;;;;;10.32;6.25;;;11.20;99.90;;;;;;7372072;19;20022;-65
2023/03/24 01:25:47;;;;;;;13.68;7.05;;;11.10;99.90;;;;;;7375625;19;20494;-65
2023/03/24 01:28:23;;;;;;;13.50;6.78;;;11.10;99.90;;;;;;7374580;19;20373;-65
2023/03/24 01:30:51;;;;;;;11.50;7.25;;;11.20;99.90;;;;;;7377132;19;20023;-64
2023/03/24 01:33:17;;;;;;;13.05;7.32;;;11.20;99.90;;;;;;7369385;19;20024;-65
2023/03/24 01:35:44;;;;;;;13.77;7.88;;;11.20;99.90;;;;;;7371878;19;20026;-65
2023/03/24 01:38:12;;;;;;;12.00;6.95;;;11.20;99.90;;;;;;7361280;19;20056;-64
2023/03/24 01:40:41;;;;;;;12.95;6.93;;;11.20;99.90;;;;;;7375276;19;20025;-64
2023/03/24 01:43:25;;;;;;;11.25;6.68;;;11.10;99.90;;;;;;7370920;19;20014;-65
2023/03/24 01:46:04;;;;;;;12.93;7.35;;;11.20;99.90;;;;;;7369701;19;20050;-65
2023/03/24 01:48:39;;;;;;;9.63;6.57;;;11.20;99.90;;;;;;7371564;19;20098;-65
2023/03/24 01:51:22;;;;;;;13.05;7.28;;;11.10;99.90;;;;;;7372340;19;20335;-64
2023/03/24 01:54:00;;;;;;;10.25;7.32;;;11.10;99.90;;;;;;7369570;19;20019;-65
2023/03/24 01:56:30;;;;;;;10.63;7.13;;;11.20;99.90;;;;;;7372432;19;20459;-65
2023/03/24 01:59:00;;;;;;;10.32;7.70;;;11.20;99.90;;;;;;7372474;19;20011;-66
2023/03/24 02:01:51;;;;;;;11.82;7.07;;;11.30;99.90;;;;;;7372319;19;20018;-66
2023/03/24 02:04:52;;;;;;;11.07;6.53;;;11.30;99.90;;;;;;7372014;19;20010;-67
2023/03/24 02:07:38;;;;;;;11.65;7.10;;;11.30;99.90;;;;;;7369678;19;20948;-68
2023/03/24 02:10:12;;;;;;;11.02;7.18;;;11.30;99.90;;;;;;7373383;19;20811;-68
2023/03/24 02:12:41;;;;;;;13.88;7.53;;;11.30;99.90;;;;;;7369721;19;20025;-70
2023/03/24 02:15:13;;;;;;;12.63;7.43;;;11.30;99.90;;;;;;7369110;19;20011;-69
2023/03/24 02:17:53;;;;;;;;;;;11.30;99.90;;;;;;7371106;19;20477;-70
2023/03/24 02:20:43;;;;;;;11.30;7.30;;;11.40;99.90;;;;;;7371765;19;19933;-70
2023/03/24 02:23:40;;;;;;;14.60;7.18;;;11.30;99.90;;;;;;7368077;19;20015;-69
2023/03/24 02:26:13;;;;;;;12.38;8.18;;;11.40;99.90;;;;;;7363886;19;20022;-69
2023/03/24 02:29:02;;;;;;;11.77;7.78;;;11.40;99.90;;;;;;7364024;19;20022;-66
2023/03/24 02:32:02;;;;;;;11.68;7.65;;;11.40;99.90;;;;;;7366311;19;20022;-67
2023/03/24 02:34:49;;;;;;;12.65;8.05;;;11.40;99.90;;;;;;7367542;19;20035;-66
2023/03/24 02:37:46;;;;;;;12.27;8.13;;;11.40;99.90;;;;;;7367558;19;20041;-66
2023/03/24 02:40:19;;;;;;;9.05;7.35;;;11.40;99.90;;;;;;7370918;19;20018;-65
2023/03/24 02:43:17;;;;;;;10.95;7.80;;;11.40;99.90;;;;;;7370384;19;20474;-65
2023/03/24 02:45:59;;;;;;;11.02;7.72;;;11.40;99.90;;;;;;7368499;19;20046;-65
2023/03/24 02:48:35;;;;;;;10.40;7.75;;;11.40;99.90;;;;;;7370493;19;20014;-65
2023/03/24 02:51:12;;;;;;;10.43;7.53;;;11.50;99.90;;;;;;7371559;19;20074;-65
2023/03/24 02:53:54;;;;;;;12.55;7.55;;;11.40;99.90;;;;;;7370111;19;20058;-64
2023/03/24 02:56:33;;;;;;;13.35;8.13;;;11.40;99.90;;;;;;7369745;19;20031;-65
2023/03/24 02:59:18;;;;;;;10.55;8.18;;;11.50;99.90;;;;;;7369844;19;20111;-65
2023/03/24 03:01:53;;;;;;;13.32;8.80;;;11.40;99.90;;;;;;7366846;19;20289;-66
2023/03/24 03:04:49;;;;;;;13.85;8.52;;;11.40;99.90;;;;;;7364293;19;20017;-65
2023/03/24 03:07:20;;;;;;;11.18;8.02;;;11.50;99.90;;;;;;7362844;19;20022;-65
2023/03/24 03:10:01;;;;;;;9.90;8.57;;;11.50;99.90;;;;;;7371954;19;20482;-65
2023/03/24 03:12:31;;;;;;;10.05;7.90;;;11.50;99.90;;;;;;7363687;19;20018;-65
2023/03/24 03:15:04;;;;;;;9.97;8.77;;;11.50;99.90;;;;;;7370064;19;20502;-65
2023/03/24 03:17:38;;;;;;;11.40;8.52;;;11.50;99.90;;;;;;7371294;19;20117;-65
2023/03/24 03:20:19;;;;;;;9.93;8.00;;;11.60;99.90;;;;;;7370995;19;20805;-66
2023/03/24 03:23:09;;;;;;;9.68;7.97;;;11.60;99.90;;;;;;7366906;19;20014;-68
2023/03/24 03:25:45;;;;;;;9.43;7.70;;;11.50;99.90;;;;;;7367115;19;20015;-70
2023/03/24 03:28:16;;;;;;;10.02;7.50;;;11.60;99.90;;;;;;7368706;19;20700;-71
2023/03/24 03:30:45;;;;;;;;;;;11.60;99.90;;;;;;7369783;19;20012;-69
2023/03/24 03:33:23;;;;;;;10.20;8.10;;;11.60;99.90;;;;;;7362305;19;19933;-68
2023/03/24 03:35:57;;;;;;;11.23;9.07;;;11.60;99.90;;;;;;7366905;19;20021;-66
2023/03/24 03:38:53;;;;;;;11.45;9.35;;;11.50;99.90;;;;;;7367580;19;20090;-67
2023/03/24 03:41:19;;;;;;;11.23;9.02;;;11.50;99.90;;;;;;7366859;19;20046;-68
2023/03/24 03:43:49;;;;;;;12.27;9.05;;;11.50;99.90;;;;;;7362874;19;20666;-70
2023/03/24 03:46:16;;;;;;;10.10;7.97;;;11.50;99.90;;;;;;7363150;19;20343;-67
2023/03/24 03:48:44;;;;;;;10.00;8.18;;;11.40;99.90;;;;;;7366451;19;20022;-69
2023/03/24 03:51:13;;;;;;;12.07;8.02;;;11.50;99.90;;;;;;7375387;19;20016;-71
2023/03/24 03:53:49;;;;;;;5.78;3.80;;;11.40;99.90;;;;;;7373393;19;20351;-70
2023/03/24 03:56:18;;;;;;;8.25;3.58;;;11.20;99.90;;;;;;7370889;19;20040;-69
2023/03/24 03:58:57;;;;;;;6.22;2.60;;;11.00;99.90;;;;;;7376201;19;20510;-69
2023/03/24 04:01:26;;;;;;;7.03;2.30;;;10.80;99.90;;;;;;7370545;19;20035;-69
2023/03/24 04:04:20;;;;;;;6.25;3.10;;;10.70;99.90;;;;;;7377160;19;20486;-68
2023/03/24 04:07:23;;;;;;;8.63;3.67;;;10.60;99.90;;;;;;7375523;19;20014;-69
2023/03/24 04:10:24;;;;;;;8.75;3.63;;;10.60;99.90;;;;;;7377703;19;20738;-70
2023/03/24 04:13:06;;;;;;;9.70;3.80;;;10.50;99.90;;;;;;7377133;19;20014;-70
2023/03/24 04:16:27;;;;;;;9.57;3.13;;;10.40;99.90;;;;;;7373146;19;20018;-71
2023/03/24 04:19:31;;;;;;;;;;;10.30;99.90;;;;;;7370594;19;20041;-72
2023/03/24 04:22:19;;;;;;;11.55;3.42;;;10.20;99.90;;;;;;7371515;19;19922;-72
2023/03/24 04:24:58;;;;;;;12.13;3.63;;;10.20;99.90;;;;;;7372724;19;20011;-73
2023/03/24 04:27:37;;;;;;;9.60;3.63;;;10.20;99.90;;;;;;7371532;19;20086;-72
2023/03/24 04:30:29;;;;;;;12.63;3.47;;;10.20;99.90;;;;;;7375247;19;20015;-74
2023/03/24 04:33:50;;;;;;;9.52;3.50;;;10.10;99.90;;;;;;7375750;19;20022;-74
2023/03/24 04:36:41;;;;;;;8.52;3.80;;;10.10;99.90;;;;;;7372272;19;20113;-75
2023/03/24 04:39:31;;;;;;;7.50;2.78;;;10.00;99.90;;;;;;7373610;19;20504;-75
2023/03/24 04:42:05;;;;;;;13.00;3.42;;;10.00;99.90;;;;;;7372860;19;20074;-75
2023/03/24 04:44:32;;;;;;;12.15;3.42;;;9.90;99.90;;;;;;7372525;19;20049;-75
2023/03/24 04:47:31;;;;;;;12.57;4.03;;;9.80;99.90;;;;;;7372040;19;20094;-75
2023/03/24 04:50:30;;;;;;;12.57;3.45;;;9.80;99.90;;;;;;7374980;19;20419;-74
2023/03/24 04:52:59;;;;;;;9.30;3.08;;;9.80;99.90;;;;;;7370286;19;20019;-75
2023/03/24 04:55:48;;;;;;;13.85;3.67;;;9.80;99.90;;;;;;7371841;19;20051;-75
2023/03/24 04:58:18;;;;;;;11.85;3.47;;;9.80;99.90;;;;;;7373266;19;20041;-75
2023/03/24 05:00:45;;;;;;;12.63;3.63;;;9.80;99.90;;;;;;7373802;19;20065;-75
2023/03/24 05:03:14;;;;;;;13.70;3.85;;;9.70;99.90;;;;;;7371230;19;20014;-75
2023/03/24 05:05:42;;;;;;;11.98;3.15;;;9.70;99.90;;;;;;7376745;19;20022;-75
2023/03/24 05:08:09;;;;;;;15.30;3.97;;;9.70;99.90;;;;;;7372742;19;20039;-75
2023/03/24 05:10:36;;;;;;;11.43;3.67;;;9.60;99.90;;;;;;7373397;19;20051;-75
2023/03/24 05:13:06;;;;;;;11.63;3.53;;;9.60;99.90;;;;;;7373416;19;20453;-75
2023/03/24 05:15:43;;;;;;;14.00;4.18;;;9.60;99.90;;;;;;7373525;19;20845;-75
2023/03/24 05:18:40;;;;;;;14.85;4.22;;;9.60;99.90;;;;;;7374278;19;20046;-76
2023/03/24 05:21:09;;;;;;;8.38;3.10;;;9.50;99.90;;;;;;7379144;19;20018;-71
2023/03/24 05:23:36;;;;;;;19.33;4.07;;;9.50;99.90;;;;;;7376245;19;20414;-76
2023/03/24 05:26:04;;;;;;;14.38;3.80;;;9.50;99.90;;;;;;7366871;19;20014;-76
2023/03/24 05:28:34;;;;;;;10.77;3.65;;;9.50;99.90;;;;;;7365791;19;20014;-75
2023/03/24 05:31:01;;;;;;;15.35;4.07;;;9.50;99.90;;;;;;7367210;19;20025;-74
2023/03/24 05:33:51;;;;;;;16.35;3.72;;;9.50;99.90;;;;;;7367351;19;20042;-75
2023/03/24 05:36:20;;;;;;;18.38;3.67;;;9.40;99.90;;;;;;7366291;19;20106;-73
2023/03/24 05:38:54;;;;;;;13.07;3.60;;;9.40;99.90;;;;;;7367416;19;20117;-75
2023/03/24 05:41:21;;;;;;;14.10;3.50;;;9.30;99.90;;;;;;7364448;19;20019;-73
2023/03/24 05:43:47;;;;;;;13.95;3.55;;;9.30;99.90;;;;;;7364908;19;20122;-74
2023/03/24 05:46:16;;;;;;;11.90;3.08;;;9.30;99.90;;;;;;7362493;19;20058;-73
2023/03/24 05:48:43;;;;;;;11.32;2.95;;;9.20;99.90;;;;;;7364578;19;20097;-74
2023/03/24 05:51:12;;;;;;;10.60;2.90;;;9.20;99.90;;;;;;7367065;19;20792;-73
2023/03/24 05:53:38;;;;;;;17.27;4.05;;;9.10;99.90;;;;;;7364450;19;20022;-74
2023/03/24 05:56:17;;;;;;;14.88;2.83;;;9.10;99.90;;;;;;7366630;19;20085;-74
2023/03/24 05:59:04;;;;;;;11.88;2.72;;;9.00;99.90;;;;;;7368183;19;20120;-74
2023/03/24 06:01:49;;;;;;;15.02;3.17;;;9.00;99.90;;;;;;7366674;19;20882;-73
2023/03/24 06:04:52;;;;;;;18.38;3.38;;;9.00;99.90;;;;;;7373281;19;20030;-73
2023/03/24 06:07:25;;;;;;;11.68;2.85;;;8.90;99.90;;;;;;7363655;19;20050;-73
2023/03/24 06:09:56;;;;;;;13.87;2.80;;;8.90;99.90;;;;;;7367239;19;20014;-74
2023/03/24 06:12:24;;;;;;;14.10;3.10;;;8.90;99.90;;;;;;7360397;19;20475;-73
2023/03/24 06:14:57;;;;;;;11.68;2.90;;;9.00;99.90;;;;;;7372982;19;20892;-74
2023/03/24 06:17:23;;;;;;;9.30;2.90;;;9.00;99.90;;;;;;7365257;19;20050;-74
2023/03/24 06:19:52;;;;;;;14.23;3.60;;;9.00;99.90;;;;;;7369626;19;20055;-72
2023/03/24 06:22:29;;;;;;;10.85;2.40;;;9.10;99.90;;;;;;7362225;19;20032;-74
2023/03/24 06:24:57;;;;;;;13.02;3.17;;;9.10;99.90;;;;;;7366026;19;20677;-74
2023/03/24 06:27:28;;;;;;;10.63;2.92;;;9.10;99.90;;;;;;7366665;19;20097;-73
2023/03/24 06:29:57;;;;;;;10.68;2.72;;;9.20;99.90;;;;;;7365877;19;20884;-73
2023/03/24 06:32:25;;;;;;;11.48;2.85;;;9.20;99.90;;;;;;7371226;19;20496;-74
2023/03/24 06:34:52;;;;;;;13.13;3.95;;;9.30;99.90;;;;;;7369316;19;20029;-74
2023/03/24 06:37:42;;;;;;;8.20;2.63;;;9.30;99.90;;;;;;7366975;19;20035;-73
2023/03/24 06:40:14;;;;;;;12.20;3.25;;;9.30;99.90;;;;;;7365901;19;21492;-73
2023/03/24 06:42:48;;;;;;;10.23;2.70;;;9.40;99.90;;;;;;7366342;19;20043;-73
2023/03/24 06:45:15;;;;;;;15.45;3.38;;;9.40;99.90;;;;;;7371095;19;20018;-70
2023/03/24 06:47:42;;;;;;;9.93;3.22;;;9.40;99.90;;;;;;7371103;19;20022;-71
2023/03/24 06:50:09;;;;;;;14.52;3.80;;;9.50;99.90;;;;;;7368031;19;20023;-71
2023/03/24 06:52:40;;;;;;;13.52;3.08;;;9.50;99.90;;;;;;7359219;19;20021;-70
2023/03/24 06:55:09;;;;;;;17.60;3.88;;;9.60;99.90;;;;;;7368136;19;20039;-73
2023/03/24 06:57:36;;;;;;;16.35;3.50;;;9.70;99.90;;;;;;7365331;19;20108;-74
2023/03/24 07:00:29;;;;;;;11.95;3.72;;;9.70;99.90;;;;;;7366771;19;20054;-73
2023/03/24 07:03:17;;;;;;;12.48;2.80;;;9.70;99.90;;;;;;7365406;19;20030;-74
2023/03/24 07:05:58;;;;;;;16.88;3.75;;;9.80;99.90;;;;;;7364032;19;20023;-74
2023/03/24 07:08:28;;;;;;;14.48;3.22;;;9.80;99.90;;;;;;7365652;19;20022;-74
2023/03/24 07:10:58;;;;;;;16.73;3.88;;;9.80;99.90;;;;;;7357162;19;20026;-74
2023/03/24 07:13:25;;;;;;;16.02;3.53;;;9.80;99.90;;;;;;7356192;19;20014;-74
2023/03/24 07:15:59;;;;;;;10.15;2.90;;;9.80;99.90;;;;;;7358703;19;20832;-74
2023/03/24 07:18:25;;;;;;;12.55;3.03;;;9.80;99.90;;;;;;7365974;19;20026;-74
2023/03/24 07:20:57;;;;;;;15.48;3.80;;;9.80;99.90;;;;;;7365503;19;20030;-74
2023/03/24 07:23:26;;;;;;;15.57;3.70;;;9.80;99.90;;;;;;7364438;19;20078;-74
2023/03/24 07:26:14;;;;;;;13.70;3.53;;;9.80;99.90;;;;;;7366599;19;20018;-74
2023/03/24 07:28:44;;;;;;;19.15;4.15;;;9.80;99.90;;;;;;7363207;19;20010;-74
2023/03/24 07:31:11;;;;;;;16.35;3.63;;;9.90;99.90;;;;;;7366896;19;20015;-71
2023/03/24 07:33:41;;;;;;;23.13;4.28;;;9.90;99.90;;;;;;7368364;19;20506;-71
2023/03/24 07:36:08;;;;;;;19.77;4.10;;;10.00;99.90;;;;;;7368984;19;20584;-71
2023/03/24 07:38:37;;;;;;;14.65;3.78;;;10.20;99.90;;;;;;7369136;19;20612;-71
2023/03/24 07:41:08;;;;;;;24.40;4.47;;;10.40;99.90;;;;;;7368380;19;20089;-71
2023/03/24 07:43:38;;;;;;;20.33;4.88;;;10.30;99.90;;;;;;7366599;19;20058;-71
2023/03/24 07:46:28;;;;;;;17.50;4.15;;;10.30;99.90;;;;;;7367505;19;20026;-71
2023/03/24 07:48:54;;;;;;;16.77;4.35;;;10.30;99.90;;;;;;7370451;19;20022;-71
2023/03/24 07:51:24;;;;;;;19.70;4.05;;;10.40;99.90;;;;;;7370134;19;20022;-71
2023/03/24 07:54:09;;;;;;;17.30;3.85;;;10.30;99.90;;;;;;7357821;19;20709;-71
2023/03/24 07:56:43;;;;;;;19.42;3.95;;;10.40;99.90;;;;;;7358972;19;20046;-71
2023/03/24 07:59:11;;;;;;;21.33;4.72;;;10.40;99.90;;;;;;7357281;19;20776;-71
2023/03/24 08:02:03;;;;;;;23.23;5.10;;;10.50;99.90;;;;;;7357473;19;20903;-75
2023/03/24 08:04:53;;;;;;;15.23;4.03;;;10.60;99.90;;;;;;7365616;19;20508;-76
2023/03/24 08:07:30;;;;;;;38.03;18.92;;;10.90;99.90;;;;;;7364126;19;20014;-54
2023/03/24 08:09:57;;;;;;;33.05;16.38;;;11.40;99.90;;;;;;7368770;19;21269;-56
2023/03/24 08:12:23;;;;;;;34.15;9.15;;;11.50;99.90;;;;;;7369409;19;20603;-57
2023/03/24 08:14:50;;;;;;;28.40;10.13;;;11.80;99.90;;;;;;7367131;19;20026;-57
2023/03/24 08:17:17;;;;;;;18.27;6.75;;;12.00;99.90;;;;;;7370582;19;20714;-58
2023/03/24 08:19:43;;;;;;;20.00;5.32;;;12.30;99.90;;;;;;7361570;19;20043;-54
2023/03/24 08:22:11;;;;;;;25.08;5.72;;;12.40;99.90;;;;;;7365347;19;20022;-54
2023/03/24 08:24:41;;;;;;;20.63;4.55;;;12.50;99.90;;;;;;7366288;19;20041;-74
2023/03/24 08:27:08;;;;;;;20.60;4.38;;;12.30;99.90;;;;;;7368101;19;20025;-76
2023/03/24 08:29:36;;;;;;;21.67;4.53;;;12.70;99.90;;;;;;7358046;19;20030;-70
2023/03/24 08:32:03;;;;;;;13.68;3.33;;;13.10;99.90;;;;;;7351066;19;20014;-65
2023/03/24 08:34:32;;;;;;;18.65;4.15;;;13.00;99.90;;;;;;7364211;19;20025;-69
2023/03/24 08:36:58;;;;;;;17.30;3.85;;;13.10;99.90;;;;;;7369827;19;20488;-69
2023/03/24 08:39:25;;;;;;;15.10;3.20;;;13.00;99.90;;;;;;7372726;19;20019;-71
2023/03/24 08:41:53;;;;;;;22.23;3.67;;;12.90;99.90;;;;;;7369445;19;20022;-71
2023/03/24 08:44:20;;;;;;;16.20;3.47;;;12.90;99.90;;;;;;7371094;19;20640;-68
2023/03/24 08:46:46;;;;;;;17.23;3.92;;;13.60;99.90;;;;;;7374481;19;20122;-69
2023/03/24 08:49:13;;;;;;;15.35;3.97;;;13.90;99.90;;;;;;7356935;19;20058;-70
2023/03/24 08:51:45;;;;;;;17.13;4.13;;;14.30;99.90;;;;;;7370659;19;20950;-70
2023/03/24 08:54:11;;;;;;;17.58;3.95;;;14.10;99.90;;;;;;7369376;19;20010;-70
2023/03/24 08:56:41;;;;;;;17.13;4.30;;;13.50;99.90;;;;;;7373285;19;20014;-70
2023/03/24 08:59:07;;;;;;;16.38;4.38;;;13.60;99.90;;;;;;7373324;19;20030;-70
2023/03/24 09:01:42;;;;;;;15.30;3.45;;;13.90;99.90;;;;;;7374841;19;20033;-72
2023/03/24 09:04:08;;;;;;;17.13;3.42;;;14.50;99.90;;;;;;7374226;19;20022;-71
2023/03/24 09:06:35;;;;;;;16.60;3.30;;;14.60;99.90;;;;;;7372149;19;20018;-73
2023/03/24 09:09:02;;;;;;;15.60;4.15;;;14.90;99.90;;;;;;7371778;19;20525;-73
2023/03/24 09:11:28;;;;;;;18.35;3.42;;;14.60;99.90;;;;;;7374244;19;20018;-72
2023/03/24 09:13:54;;;;;;;18.98;4.15;;;14.60;99.90;;;;;;7375346;19;20042;-72
2023/03/24 09:16:23;;;;;;;15.25;4.72;;;14.70;99.90;;;;;;7374171;19;20971;-72
2023/03/24 09:18:58;;;;;;;14.77;3.70;;;14.50;99.90;;;;;;7371844;19;20022;-72
2023/03/24 09:21:24;;;;;;;17.80;4.10;;;15.00;99.90;;;;;;7372503;19;21396;-72
2023/03/24 09:23:50;;;;;;;19.27;4.93;;;15.70;99.90;;;;;;7373436;19;20393;-72
2023/03/24 09:26:16;;;;;;;15.95;3.90;;;15.30;99.90;;;;;;7373181;19;20553;-72
2023/03/24 09:28:43;;;;;;;15.32;3.65;;;14.50;99.90;;;;;;7376031;19;20014;-72
2023/03/24 09:31:10;;;;;;;14.88;3.42;;;13.40;99.90;;;;;;7369341;19;20082;-72
2023/03/24 09:33:37;;;;;;;16.20;3.70;;;13.60;99.90;;;;;;7367123;19;20631;-72
2023/03/24 09:36:04;;;;;;;11.70;3.28;;;14.00;99.90;;;;;;7370126;19;20014;-72
2023/03/24 09:38:38;;;;;;;15.27;3.70;;;14.30;99.90;;;;;;7372469;19;20852;-73
2023/03/24 09:41:19;;;;;;;16.92;4.20;;;14.80;99.90;;;;;;7372784;19;20030;-73
2023/03/24 09:44:02;;;;;;;12.15;3.08;;;15.30;99.90;;;;;;7372711;19;20370;-73
2023/03/24 09:46:41;;;;;;;14.90;3.35;;;15.20;99.90;;;;;;7370800;19;20039;-74
2023/03/24 09:49:22;;;;;;;12.82;3.13;;;15.50;99.90;;;;;;7375125;19;20035;-73
2023/03/24 09:51:52;;;;;;;13.93;2.97;;;15.60;99.90;;;;;;7371660;19;20025;-73
2023/03/24 09:54:52;;;;;;;14.00;3.73;;;15.30;99.90;;;;;;7370099;19;20486;-73
2023/03/24 09:57:43;;;;;;;15.38;3.10;;;15.20;99.90;;;;;;7369097;19;20018;-74
2023/03/24 10:00:18;;;;;;;14.02;3.28;;;15.50;99.90;;;;;;7373519;19;20024;-72
2023/03/24 10:02:44;;;;;;;15.55;3.65;;;15.90;99.90;;;;;;7371922;19;20734;-72
2023/03/24 10:05:35;;;;;;;12.75;3.10;;;16.20;99.90;;;;;;7367908;19;20055;-72
2023/03/24 10:08:20;;;;;;;12.50;2.95;;;16.70;99.90;;;;;;7367611;19;20026;-72
2023/03/24 10:11:03;;;;;;;14.63;3.30;;;16.60;99.90;;;;;;7379939;19;20022;-73
2023/03/24 10:13:36;;;;;;;13.32;3.20;;;16.20;99.90;;;;;;7373078;19;20024;-72
2023/03/24 10:16:09;;;;;;;17.45;4.63;;;15.90;99.90;;;;;;7371066;19;20018;-73
2023/03/24 10:18:44;;;;;;;41.20;29.67;;;15.60;99.90;;;;;;7369636;19;20037;-55
2023/03/24 10:21:21;;;;;;;18.58;6.18;;;15.40;99.90;;;;;;7373403;19;20355;-56
2023/03/24 10:24:14;;;;;;;15.57;3.08;;;14.90;99.90;;;;;;7376286;19;20098;-78
2023/03/24 10:26:50;;;;;;;16.20;6.05;;;14.70;99.90;;;;;;7368128;19;20011;-56
2023/03/24 10:29:31;;;;;;;17.25;4.63;;;15.50;99.90;;;;;;7378935;19;20041;-56
2023/03/24 10:32:08;;;;;;;15.68;4.20;;;16.10;99.90;;;;;;7372348;19;20832;-57
2023/03/24 10:34:36;;;;;;;15.90;4.53;;;16.30;99.90;;;;;;7366556;19;20445;-58
2023/03/24 10:37:03;;;;;;;11.27;3.03;;;16.90;99.90;;;;;;7370856;19;20014;-57
2023/03/24 10:39:31;;;;;;;14.85;3.17;;;17.30;99.90;;;;;;7386558;19;20494;-75
2023/03/24 10:41:59;;;;;;;12.57;3.25;;;17.80;99.90;;;;;;7387417;19;20014;-74
2023/03/24 10:44:27;;;;;;;12.85;3.58;;;17.60;99.00;;;;;;7385611;19;20095;-75
2023/03/24 10:47:01;;;;;;;11.68;3.22;;;17.70;99.90;;;;;;7385901;19;20118;-74
2023/03/24 10:49:32;;;;;;;12.77;3.05;;;18.00;99.90;;;;;;7385646;19;20035;-75
2023/03/24 10:52:07;;;;;;;10.38;3.25;;;18.30;91.80;;;;;;7382863;19;20076;-74
2023/03/24 10:54:34;;;;;;;13.55;3.10;;;18.50;97.50;;;;;;7376759;19;20025;-73
2023/03/24 10:57:05;;;;;;;12.75;2.67;;;19.30;99.90;;;;;;7382718;19;20031;-73
2023/03/24 10:59:35;;;;;;;;;;;18.30;65.00;;;;;;7388861;19;20026;-73
2023/03/24 11:02:10;;;;;;;11.48;3.20;;;17.70;65.30;;;;;;7390758;19;20330;-72
2023/03/24 11:04:38;;;;;;;11.43;3.22;;;18.30;68.60;;;;;;7388347;19;20022;-74
2023/03/24 11:07:14;;;;;;;8.88;2.58;;;18.20;70.20;;;;;;7391625;19;20379;-73
2023/03/24 11:09:44;;;;;;;11.45;2.72;;;17.60;64.50;;;;;;7393208;19;20014;-73
2023/03/24 11:12:43;;;;;;;11.55;2.92;;;17.80;68.00;;;;;;7392644;19;21389;-73
2023/03/24 11:15:30;;;;;;;12.35;2.83;;;18.00;64.60;;;;;;7389636;19;20007;-73
2023/03/24 11:18:00;;;;;;;10.30;3.20;;;18.00;66.00;;;;;;7391015;19;20058;-73
2023/03/24 11:21:03;;;;;;;13.80;2.78;;;17.90;64.50;;;;;;7394644;19;20054;-73
2023/03/24 11:23:37;;;;;;;9.80;2.45;;;18.00;67.60;;;;;;7390974;19;20011;-73
2023/03/24 11:26:10;;;;;;;8.27;2.20;;;18.00;66.20;;;;;;7392635;19;20019;-73
2023/03/24 11:28:44;;;;;;;9.98;2.63;;;17.60;66.10;;;;;;7392874;19;20026;-81
2023/03/24 11:31:17;;;;;;;11.15;2.60;;;17.00;66.70;;;;;;7372883;19;20040;-78
2023/03/24 11:34:01;;;;;;;12.75;2.97;;;16.50;68.60;;;;;;7368235;19;20083;-78
2023/03/24 11:36:36;;;;;;;10.50;2.65;;;16.00;81.90;;;;;;7370044;19;20844;-74
2023/03/24 11:39:13;;;;;;;16.80;3.50;;;16.20;84.80;;;;;;7388071;19;20018;-74
2023/03/24 11:42:11;;;;;;;12.25;2.80;;;15.70;95.80;;;;;;7384573;19;20663;-74
2023/03/24 11:44:38;;;;;;;11.10;2.78;;;15.90;97.10;;;;;;7390288;19;20074;-73
2023/03/24 11:47:29;;;;;;;11.52;2.42;;;16.30;99.90;;;;;;7389996;19;20007;-73
2023/03/24 11:50:10;;;;;;;15.38;3.25;;;17.20;99.90;;;;;;7376104;19;20025;-72
2023/03/24 11:52:48;;;;;;;15.15;3.03;;;18.20;89.70;;;;;;7370518;19;20074;-73
2023/03/24 11:55:29;;;;;;;14.68;3.20;;;17.80;90.00;;;;;;7368648;19;20018;-73
2023/03/24 11:58:11;;;;;;;12.73;2.92;;;17.80;81.40;;;;;;7366484;19;20022;-74
2023/03/24 12:00:47;;;;;;;10.15;2.58;;;17.70;74.70;;;;;;7366787;19;20039;-74
2023/03/24 12:03:42;;;;;;;12.40;2.88;;;18.30;83.90;;;;;;7367041;19;20458;-74
2023/03/24 12:06:25;;;;;;;12.55;3.08;;;18.00;69.80;;;;;;7362637;19;20018;-71
2023/03/24 12:09:07;;;;;;;11.90;3.45;;;18.00;71.10;;;;;;7366077;19;20022;-71
2023/03/24 12:11:51;;;;;;;10.90;2.80;;;18.10;73.90;;;;;;7373241;19;20030;-72
2023/03/24 12:14:59;;;;;;;10.82;3.17;;;18.00;71.10;;;;;;7375188;19;20028;-72
2023/03/24 12:17:35;;;;;;;13.70;2.40;;;17.60;69.80;;;;;;7369605;19;20019;-72
2023/03/24 12:20:24;;;;;;;10.00;2.60;;;17.20;74.20;;;;;;7372711;19;20029;-73
2023/03/24 12:23:12;;;;;;;8.90;2.33;;;16.10;88.80;;;;;;7371844;19;20782;-72
2023/03/24 12:26:05;;;;;;;10.95;2.80;;;16.40;99.90;;;;;;7372166;19;20018;-72
2023/03/24 12:28:43;;;;;;;12.73;2.30;;;16.80;97.60;;;;;;7376340;19;20589;-72
2023/03/24 12:31:16;;;;;;;15.13;3.17;;;17.20;92.40;;;;;;7374080;19;20015;-72
2023/03/24 12:34:03;;;;;;;9.43;2.22;;;17.50;91.10;;;;;;7372232;19;20019;-72
2023/03/24 12:36:49;;;;;;;9.65;2.70;;;17.90;77.60;;;;;;7377070;19;23165;-72
2023/03/24 12:39:31;;;;;;;13.30;2.85;;;18.30;85.90;;;;;;7372402;19;20015;-73
2023/03/24 12:42:11;;;;;;;;;;;17.70;73.20;;;;;;7371495;19;20717;-73
2023/03/24 12:45:04;;;;;;;10.27;2.65;;;18.40;65.10;;;;;;7366479;19;19933;-72
2023/03/24 12:48:18;;;;;;;11.88;2.78;;;18.50;66.60;;;;;;7368221;19;20558;-72
2023/03/24 12:51:05;;;;;;;10.40;2.45;;;18.60;63.10;;;;;;7372352;19;20018;-73
2023/03/24 12:53:46;;;;;;;12.18;2.80;;;18.50;62.90;;;;;;7382526;19;20020;-72
2023/03/24 12:56:15;;;;;;;11.32;2.80;;;19.40;67.20;;;;;;7386802;19;20525;-72
2023/03/24 12:58:47;;;;;;;15.02;3.42;;;19.00;64.50;;;;;;7384319;19;20031;-73
2023/03/24 13:01:36;;;;;;;11.38;2.60;;;19.70;64.40;;;;;;7373034;19;20014;-72
2023/03/24 13:04:24;;;;;;;11.82;2.40;;;19.70;61.30;;;;;;7375056;19;20026;-73
2023/03/24 13:07:00;;;;;;;12.15;2.88;;;19.60;60.70;;;;;;7373697;19;20022;-72
2023/03/24 13:09:59;;;;;;;10.43;2.67;;;18.80;63.40;;;;;;7369744;19;20478;-73
2023/03/24 13:13:02;;;;;;;14.93;3.00;;;18.30;66.00;;;;;;7372090;19;20153;-73
2023/03/24 13:15:44;;;;;;;10.63;2.88;;;17.90;67.00;;;;;;7364275;19;20034;-73
2023/03/24 13:18:10;;;;;;;16.52;3.40;;;18.20;71.10;;;;;;7372100;19;20018;-74
2023/03/24 13:20:52;;;;;;;13.90;2.85;;;18.70;68.20;;;;;;7378418;19;20014;-72
2023/03/24 13:23:53;;;;;;;12.02;2.83;;;19.30;69.40;;;;;;7391011;19;20025;-72
2023/03/24 13:27:04;;;;;;;13.60;2.92;;;19.10;64.80;;;;;;7387859;19;20542;-72